Time;durP1;ratioP1;P1;durP2;ratioP2;P2;SDS_P1;SDS_P2;PMS_P1;PMS_P2;Temp;Humidity;BMP_temperature;BMP_pressure;BME280_temperature;BME280_humidity;BME280_pressure;Samples;Min_cycle;Max_cycle;Signal;HPM_P1;HPM_P2
2023/01/07 00:02:21;;;;;;;28.23;13.88;;;;;;;;;;5035493;28;20041;-78
2023/01/07 00:04:47;;;;;;;28.52;13.90;;;;;;;;;;5017430;28;20103;-78
2023/01/07 00:07:13;;;;;;;30.45;13.05;;;;;;;;;;5035719;28;20061;-78
2023/01/07 00:09:39;;;;;;;25.95;12.82;;;;;;;;;;5035916;28;20334;-78
2023/01/07 00:12:05;;;;;;;24.05;11.90;;;;;;;;;;5034813;28;20025;-78
2023/01/07 00:14:31;;;;;;;23.10;11.90;;;;;;;;;;5034761;28;20068;-78
2023/01/07 00:16:57;;;;;;;25.85;12.40;;;;;;;;;;5035101;28;20036;-78
2023/01/07 00:19:23;;;;;;;29.13;13.05;;;;;;;;;;5035189;28;20522;-78
2023/01/07 00:21:49;;;;;;;23.83;12.77;;;;;;;;;;5034946;28;20042;-78
2023/01/07 00:24:15;;;;;;;24.42;12.27;;;;;;;;;;5034389;28;20029;-78
2023/01/07 00:26:41;;;;;;;26.45;12.43;;;;;;;;;;5028889;28;20391;-78
2023/01/07 00:29:08;;;;;;;24.85;13.05;;;;;;;;;;5016063;28;20022;-78
2023/01/07 00:31:35;;;;;;;22.17;11.13;;;;;;;;;;5034717;28;20053;-78
2023/01/07 00:36:29;;;;;;;25.17;11.95;;;;;;;;;;5034635;28;20383;-78
2023/01/07 00:39:06;;;;;;;24.27;11.85;;;;;;;;;;5035109;28;20025;-78
2023/01/07 00:41:32;;;;;;;21.80;11.75;;;;;;;;;;5036203;28;20029;-78
2023/01/07 00:43:58;;;;;;;21.23;11.65;;;;;;;;;;5040137;28;20033;-78
2023/01/07 00:46:24;;;;;;;20.88;11.35;;;;;;;;;;5039889;28;20529;-78
2023/01/07 00:48:50;;;;;;;22.95;12.63;;;;;;;;;;5039736;28;20056;-79
2023/01/07 00:51:17;;;;;;;22.35;11.68;;;;;;;;;;5039906;28;20053;-79
2023/01/07 00:53:43;;;;;;;23.23;12.20;;;;;;;;;;5038701;28;20036;-79
2023/01/07 00:56:10;;;;;;;20.23;11.77;;;;;;;;;;5038872;28;20427;-79
2023/01/07 00:58:36;;;;;;;22.83;11.80;;;;;;;;;;5020543;28;20029;-79
2023/01/07 01:01:02;;;;;;;17.83;10.30;;;;;;;;;;5038028;28;20040;-79
2023/01/07 01:03:29;;;;;;;17.60;11.40;;;;;;;;;;5037700;28;20029;-78
2023/01/07 01:06:00;;;;;;;17.58;10.45;;;;;;;;;;5037540;28;20044;-78
2023/01/07 01:08:26;;;;;;;19.45;10.93;;;;;;;;;;5037301;28;20488;-78
2023/01/07 01:10:52;;;;;;;20.33;11.70;;;;;;;;;;5019693;28;20028;-78
2023/01/07 01:13:18;;;;;;;19.02;11.10;;;;;;;;;;5023416;28;20029;-78
2023/01/07 01:15:45;;;;;;;19.75;10.73;;;;;;;;;;5019069;28;20053;-78
2023/01/07 01:18:11;;;;;;;19.98;11.95;;;;;;;;;;5036650;28;20105;-78
2023/01/07 01:20:38;;;;;;;19.58;12.40;;;;;;;;;;5036316;28;20055;-78
2023/01/07 01:23:04;;;;;;;25.20;14.00;;;;;;;;;;5025947;28;20018;-78
2023/01/07 01:25:30;;;;;;;26.73;14.68;;;;;;;;;;5016464;28;20019;-78
2023/01/07 01:27:57;;;;;;;24.73;14.80;;;;;;;;;;5016805;28;20072;-78
2023/01/07 01:30:23;;;;;;;28.02;15.70;;;;;;;;;;5021477;28;20111;-78
2023/01/07 01:32:49;;;;;;;25.65;14.25;;;;;;;;;;5035699;28;20073;-78
2023/01/07 01:35:15;;;;;;;25.45;14.38;;;;;;;;;;5035181;28;20510;-78
2023/01/07 01:37:41;;;;;;;23.52;14.52;;;;;;;;;;5038865;28;20480;-78
2023/01/07 01:40:07;;;;;;;24.92;14.65;;;;;;;;;;5021105;28;20025;-78
2023/01/07 01:42:33;;;;;;;23.77;14.00;;;;;;;;;;5039086;28;20083;-78
2023/01/07 01:45:00;;;;;;;24.30;14.90;;;;;;;;;;5039148;28;20021;-78
2023/01/07 01:47:26;;;;;;;25.88;15.25;;;;;;;;;;5038601;28;20029;-78
2023/01/07 01:49:56;;;;;;;23.75;14.90;;;;;;;;;;5038635;28;20064;-79
2023/01/07 01:52:25;;;;;;;23.05;14.82;;;;;;;;;;5038061;28;20036;-79
2023/01/07 01:54:54;;;;;;;19.40;13.70;;;;;;;;;;5038189;28;20040;-79
2023/01/07 01:57:20;;;;;;;20.17;14.75;;;;;;;;;;5037867;28;20036;-79
2023/01/07 01:59:50;;;;;;;20.27;13.95;;;;;;;;;;5038028;28;20025;-79
2023/01/07 02:02:18;;;;;;;20.33;13.25;;;;;;;;;;5037008;28;20041;-78
2023/01/07 02:04:44;;;;;;;18.05;12.40;;;;;;;;;;5017640;28;20033;-78
2023/01/07 02:07:12;;;;;;;19.95;13.80;;;;;;;;;;5017987;28;20029;-78
2023/01/07 02:09:38;;;;;;;20.55;13.82;;;;;;;;;;5028291;28;20026;-78
2023/01/07 02:12:07;;;;;;;21.80;14.43;;;;;;;;;;5037484;28;20032;-78
2023/01/07 02:14:33;;;;;;;22.20;13.60;;;;;;;;;;5037621;28;20037;-78
2023/01/07 02:17:17;;;;;;;21.40;13.50;;;;;;;;;;5037698;28;20034;-78
2023/01/07 02:19:53;;;;;;;18.27;12.63;;;;;;;;;;5036957;28;20032;-78
2023/01/07 02:22:37;;;;;;;20.35;13.10;;;;;;;;;;5037092;28;20472;-78
2023/01/07 02:25:06;;;;;;;21.13;13.13;;;;;;;;;;5036625;28;20037;-78
2023/01/07 02:27:42;;;;;;;21.80;13.73;;;;;;;;;;5037028;28;20544;-78
2023/01/07 02:30:19;;;;;;;18.17;12.35;;;;;;;;;;4999252;28;20033;-79
2023/01/07 02:32:54;;;;;;;19.30;13.27;;;;;;;;;;5016855;28;20032;-79
2023/01/07 02:35:33;;;;;;;22.05;13.45;;;;;;;;;;5018033;28;20580;-79
2023/01/07 02:38:15;;;;;;;19.42;13.45;;;;;;;;;;5032356;28;20025;-79
2023/01/07 02:40:51;;;;;;;21.08;13.68;;;;;;;;;;5023674;28;20041;-79
2023/01/07 02:43:25;;;;;;;18.35;12.18;;;;;;;;;;5034047;28;20025;-79
2023/01/07 02:45:51;;;;;;;20.50;13.25;;;;;;;;;;5034398;28;20034;-78
2023/01/07 02:48:19;;;;;;;20.65;13.45;;;;;;;;;;5041264;28;20033;-78
2023/01/07 02:50:45;;;;;;;19.55;12.70;;;;;;;;;;5040040;28;20033;-78
2023/01/07 02:53:13;;;;;;;19.77;11.57;;;;;;;;;;5038665;28;20076;-78
2023/01/07 02:55:48;;;;;;;17.63;11.80;;;;;;;;;;5038416;28;20449;-78
2023/01/07 02:58:33;;;;;;;18.05;11.75;;;;;;;;;;5038513;28;20373;-78
2023/01/07 03:00:59;;;;;;;17.40;11.00;;;;;;;;;;5022645;28;20029;-78
2023/01/07 03:03:36;;;;;;;17.27;11.23;;;;;;;;;;5037150;28;20026;-78
2023/01/07 03:06:21;;;;;;;15.93;10.57;;;;;;;;;;5037367;28;20082;-78
2023/01/07 03:09:06;;;;;;;14.68;10.05;;;;;;;;;;5037927;28;20017;-78
2023/01/07 03:11:41;;;;;;;15.02;9.35;;;;;;;;;;5037450;28;20251;-78
2023/01/07 03:14:18;;;;;;;17.52;10.20;;;;;;;;;;5037431;28;20472;-78
2023/01/07 03:16:46;;;;;;;17.05;10.55;;;;;;;;;;5037360;28;20036;-78
2023/01/07 03:19:15;;;;;;;17.52;11.13;;;;;;;;;;5019482;28;20033;-78
2023/01/07 03:21:41;;;;;;;17.05;10.57;;;;;;;;;;5037218;28;20026;-78
2023/01/07 03:24:07;;;;;;;19.38;11.52;;;;;;;;;;5037641;28;20083;-78
2023/01/07 03:26:37;;;;;;;16.23;10.68;;;;;;;;;;5037999;28;20029;-78
2023/01/07 03:29:04;;;;;;;17.07;9.80;;;;;;;;;;5037085;28;20032;-78
2023/01/07 03:31:30;;;;;;;16.60;10.90;;;;;;;;;;5037279;28;20021;-78
2023/01/07 03:34:00;;;;;;;17.35;10.45;;;;;;;;;;5036607;28;20026;-78
2023/01/07 03:36:55;;;;;;;15.83;10.50;;;;;;;;;;5037011;28;20040;-78
2023/01/07 03:39:23;;;;;;;18.30;10.65;;;;;;;;;;5019988;28;20068;-79
2023/01/07 03:44:34;;;;;;;16.77;10.52;;;;;;;;;;5037124;28;20506;-79
2023/01/07 03:47:00;;;;;;;15.73;10.23;;;;;;;;;;5036591;28;20029;-79
2023/01/07 03:49:26;;;;;;;18.48;11.60;;;;;;;;;;5036621;28;20026;-79
2023/01/07 03:51:53;;;;;;;16.73;10.50;;;;;;;;;;5037163;28;20120;-79
2023/01/07 03:54:20;;;;;;;15.40;10.40;;;;;;;;;;5036951;28;20032;-79
2023/01/07 03:56:46;;;;;;;16.02;10.20;;;;;;;;;;5036205;28;20541;-79
2023/01/07 03:59:12;;;;;;;18.88;10.70;;;;;;;;;;5035530;28;20028;-78
2023/01/07 04:01:38;;;;;;;14.50;10.52;;;;;;;;;;5036271;28;20125;-78
2023/01/07 04:04:04;;;;;;;17.58;9.88;;;;;;;;;;5036368;28;20115;-78
2023/01/07 04:06:30;;;;;;;16.08;10.50;;;;;;;;;;5035750;28;20741;-78
2023/01/07 04:08:56;;;;;;;16.83;9.50;;;;;;;;;;5036233;28;20025;-78
2023/01/07 04:11:22;;;;;;;17.65;10.05;;;;;;;;;;5038403;28;20041;-78
2023/01/07 04:13:48;;;;;;;18.58;10.82;;;;;;;;;;5041398;28;20080;-79
2023/01/07 04:16:14;;;;;;;17.10;10.23;;;;;;;;;;5040764;28;20390;-79
2023/01/07 04:18:40;;;;;;;16.63;10.85;;;;;;;;;;5039735;28;20030;-79
2023/01/07 04:21:06;;;;;;;15.88;10.23;;;;;;;;;;5037177;28;20084;-78
2023/01/07 04:23:32;;;;;;;16.63;11.20;;;;;;;;;;5025887;28;20104;-78
2023/01/07 04:25:58;;;;;;;18.95;11.25;;;;;;;;;;5039433;28;20030;-78
2023/01/07 04:28:24;;;;;;;19.10;10.90;;;;;;;;;;5038914;28;20108;-78
2023/01/07 04:30:50;;;;;;;21.60;11.75;;;;;;;;;;5038915;28;20029;-78
2023/01/07 04:33:16;;;;;;;21.77;11.70;;;;;;;;;;5038738;28;20033;-79
2023/01/07 04:35:44;;;;;;;20.63;12.55;;;;;;;;;;5038962;28;20092;-79
2023/01/07 04:38:10;;;;;;;19.08;11.48;;;;;;;;;;5037145;28;20030;-79
2023/01/07 04:40:36;;;;;;;20.23;11.60;;;;;;;;;;5019671;28;20108;-79
2023/01/07 04:43:03;;;;;;;20.50;11.70;;;;;;;;;;5026852;28;20357;-79
2023/01/07 04:45:29;;;;;;;21.75;12.45;;;;;;;;;;5038008;28;20131;-79
2023/01/07 04:47:55;;;;;;;24.35;13.27;;;;;;;;;;5037760;28;20468;-79
2023/01/07 04:50:21;;;;;;;20.67;12.50;;;;;;;;;;5037444;28;20025;-79
2023/01/07 04:52:47;;;;;;;18.83;11.45;;;;;;;;;;5037407;28;20029;-79
2023/01/07 04:55:13;;;;;;;21.27;12.00;;;;;;;;;;5037537;28;20033;-79
2023/01/07 04:57:39;;;;;;;18.30;11.90;;;;;;;;;;5037879;28;20107;-79
2023/01/07 05:00:06;;;;;;;21.13;12.38;;;;;;;;;;5036526;28;20460;-79
2023/01/07 05:02:32;;;;;;;20.67;11.65;;;;;;;;;;5028127;28;20054;-79
2023/01/07 05:04:58;;;;;;;20.05;11.40;;;;;;;;;;5021221;28;20030;-79
2023/01/07 05:07:24;;;;;;;21.27;11.48;;;;;;;;;;5014960;28;20033;-80
2023/01/07 05:09:51;;;;;;;17.88;10.90;;;;;;;;;;5016472;28;20050;-80
2023/01/07 05:12:17;;;;;;;21.42;11.85;;;;;;;;;;5027517;28;20140;-80
2023/01/07 05:14:43;;;;;;;20.02;11.05;;;;;;;;;;5035667;28;20068;-80
2023/01/07 05:17:10;;;;;;;15.32;10.00;;;;;;;;;;5029291;28;20034;-80
2023/01/07 05:19:37;;;;;;;21.77;11.45;;;;;;;;;;5028670;28;20033;-81
2023/01/07 05:22:03;;;;;;;21.20;11.82;;;;;;;;;;5026615;28;20105;-81
2023/01/07 05:24:29;;;;;;;16.77;10.60;;;;;;;;;;5031537;28;20029;-81
2023/01/07 05:26:55;;;;;;;18.10;11.43;;;;;;;;;;5032944;28;20026;-81
2023/01/07 05:29:21;;;;;;;18.35;11.13;;;;;;;;;;5030052;28;20109;-81
2023/01/07 05:31:47;;;;;;;19.85;10.70;;;;;;;;;;5033402;28;20061;-81
2023/01/07 05:34:13;;;;;;;18.83;11.02;;;;;;;;;;5030392;28;20026;-80
2023/01/07 05:36:39;;;;;;;20.23;11.25;;;;;;;;;;5018828;28;20101;-80
2023/01/07 05:39:05;;;;;;;22.40;11.18;;;;;;;;;;5019229;28;20088;-80
2023/01/07 05:41:31;;;;;;;20.30;10.63;;;;;;;;;;5037912;28;20056;-80
2023/01/07 05:43:57;;;;;;;19.63;11.70;;;;;;;;;;5002368;28;20030;-80
2023/01/07 05:46:24;;;;;;;21.33;11.93;;;;;;;;;;5019826;28;20392;-80
2023/01/07 05:48:50;;;;;;;19.55;10.73;;;;;;;;;;5035649;28;20025;-80
2023/01/07 05:51:16;;;;;;;22.00;10.95;;;;;;;;;;5034273;28;20033;-80
2023/01/07 05:53:42;;;;;;;19.02;10.35;;;;;;;;;;5039382;28;20035;-80
2023/01/07 05:56:08;;;;;;;17.95;10.70;;;;;;;;;;5039355;28;20029;-80
2023/01/07 05:58:34;;;;;;;16.80;10.20;;;;;;;;;;5039634;28;20026;-80
2023/01/07 06:01:00;;;;;;;23.80;10.57;;;;;;;;;;5038475;28;20452;-80
2023/01/07 06:03:26;;;;;;;20.13;10.27;;;;;;;;;;5040422;28;20147;-80
2023/01/07 06:05:52;;;;;;;17.23;9.70;;;;;;;;;;5042140;28;20091;-81
2023/01/07 06:08:18;;;;;;;16.85;10.32;;;;;;;;;;5040279;28;20030;-81
2023/01/07 06:10:44;;;;;;;19.05;9.70;;;;;;;;;;5030803;28;20044;-80
2023/01/07 06:13:11;;;;;;;16.08;9.65;;;;;;;;;;5046387;28;20071;-81
2023/01/07 06:15:37;;;;;;;15.50;9.05;;;;;;;;;;5046161;28;20037;-81
2023/01/07 06:18:03;;;;;;;16.33;9.73;;;;;;;;;;5042895;28;20041;-81
2023/01/07 06:20:33;;;;;;;18.80;10.10;;;;;;;;;;5024717;28;20381;-80
2023/01/07 06:22:59;;;;;;;16.10;9.80;;;;;;;;;;5041409;28;20087;-80
2023/01/07 06:25:25;;;;;;;19.95;9.98;;;;;;;;;;5035012;28;20029;-80
2023/01/07 06:27:51;;;;;;;20.20;11.02;;;;;;;;;;5025045;28;20082;-80
2023/01/07 06:30:17;;;;;;;18.90;10.15;;;;;;;;;;5036440;28;20032;-80
2023/01/07 06:32:43;;;;;;;15.18;9.05;;;;;;;;;;5025139;28;20026;-80
2023/01/07 06:35:10;;;;;;;16.10;10.30;;;;;;;;;;5022702;28;20108;-80
2023/01/07 06:37:36;;;;;;;19.55;10.75;;;;;;;;;;5030977;28;20109;-80
2023/01/07 06:40:03;;;;;;;16.40;10.65;;;;;;;;;;5031173;28;20413;-80
2023/01/07 06:42:29;;;;;;;19.20;10.38;;;;;;;;;;5040751;28;20029;-80
2023/01/07 06:44:55;;;;;;;17.02;9.80;;;;;;;;;;5032684;28;20404;-80
2023/01/07 06:47:21;;;;;;;17.50;10.38;;;;;;;;;;5040212;28;20021;-80
2023/01/07 06:49:47;;;;;;;16.48;9.88;;;;;;;;;;5040422;28;20373;-80
2023/01/07 06:52:13;;;;;;;19.35;10.07;;;;;;;;;;5039937;28;20094;-80
2023/01/07 06:54:39;;;;;;;17.95;10.35;;;;;;;;;;5038748;28;20037;-80
2023/01/07 06:57:05;;;;;;;19.40;10.10;;;;;;;;;;5026964;28;20021;-80
2023/01/07 06:59:31;;;;;;;17.67;10.77;;;;;;;;;;5037100;28;20029;-80
2023/01/07 07:01:57;;;;;;;15.48;9.90;;;;;;;;;;5036239;28;20139;-80
2023/01/07 07:04:23;;;;;;;19.60;11.32;;;;;;;;;;5036369;28;20034;-80
2023/01/07 07:06:49;;;;;;;18.88;10.23;;;;;;;;;;5036506;28;20033;-80
2023/01/07 07:09:15;;;;;;;14.00;9.38;;;;;;;;;;5037336;28;20469;-80
2023/01/07 07:11:41;;;;;;;17.77;9.45;;;;;;;;;;5036991;28;20112;-80
2023/01/07 07:14:14;;;;;;;13.95;9.20;;;;;;;;;;5036394;28;20033;-80
2023/01/07 07:16:40;;;;;;;15.70;9.43;;;;;;;;;;5036325;28;20108;-80
2023/01/07 07:19:06;;;;;;;13.27;9.07;;;;;;;;;;5036665;28;20457;-80
2023/01/07 07:21:32;;;;;;;13.50;8.48;;;;;;;;;;5036693;28;20032;-80
2023/01/07 07:23:59;;;;;;;12.13;8.10;;;;;;;;;;5037186;28;20083;-79
2023/01/07 07:26:25;;;;;;;16.70;8.82;;;;;;;;;;5026806;28;20129;-80
2023/01/07 07:29:04;;;;;;;13.90;8.32;;;;;;;;;;5037860;28;20144;-79
2023/01/07 07:31:30;;;;;;;15.35;8.70;;;;;;;;;;5015775;28;20065;-80
2023/01/07 07:33:57;;;;;;;16.08;8.65;;;;;;;;;;5015882;28;20033;-80
2023/01/07 07:36:23;;;;;;;10.30;7.70;;;;;;;;;;5022608;28;20083;-80
2023/01/07 07:38:49;;;;;;;12.55;8.55;;;;;;;;;;5036841;28;20025;-80
2023/01/07 07:41:15;;;;;;;12.80;8.48;;;;;;;;;;5035959;28;20018;-80
2023/01/07 07:43:41;;;;;;;12.48;8.23;;;;;;;;;;5031202;28;20450;-80
2023/01/07 07:46:07;;;;;;;13.32;7.68;;;;;;;;;;5015683;28;20053;-80
2023/01/07 07:48:33;;;;;;;15.15;8.60;;;;;;;;;;5016001;28;20499;-80
2023/01/07 07:50:59;;;;;;;14.48;7.43;;;;;;;;;;5017331;28;20100;-79
2023/01/07 07:53:25;;;;;;;12.13;7.75;;;;;;;;;;5017075;28;20083;-81
2023/01/07 07:55:52;;;;;;;13.60;8.20;;;;;;;;;;5020397;28;20034;-81
2023/01/07 07:58:18;;;;;;;12.55;6.93;;;;;;;;;;5028836;28;20018;-81
2023/01/07 08:00:44;;;;;;;12.15;7.05;;;;;;;;;;5039333;28;20031;-81
2023/01/07 08:03:10;;;;;;;9.50;6.22;;;;;;;;;;5047392;28;20060;-81
2023/01/07 08:05:40;;;;;;;11.27;6.20;;;;;;;;;;5048298;28;20034;-81
2023/01/07 08:08:08;;;;;;;11.98;6.50;;;;;;;;;;5038243;28;20029;-81
2023/01/07 08:10:34;;;;;;;9.38;5.63;;;;;;;;;;5037089;28;20029;-80
2023/01/07 08:13:00;;;;;;;9.77;5.82;;;;;;;;;;5044559;28;20025;-80
2023/01/07 08:15:26;;;;;;;7.88;5.60;;;;;;;;;;5044393;28;20021;-80
2023/01/07 08:17:59;;;;;;;9.95;5.60;;;;;;;;;;5025857;28;20025;-80
2023/01/07 08:20:25;;;;;;;10.70;5.45;;;;;;;;;;5033794;28;20032;-80
2023/01/07 08:22:51;;;;;;;9.43;5.57;;;;;;;;;;5023212;28;20060;-80
2023/01/07 08:25:18;;;;;;;7.20;5.28;;;;;;;;;;5036846;28;20049;-80
2023/01/07 08:27:44;;;;;;;10.32;5.32;;;;;;;;;;5043345;28;20036;-80
2023/01/07 08:30:10;;;;;;;7.50;4.80;;;;;;;;;;5041436;28;20385;-80
2023/01/07 08:32:36;;;;;;;7.35;4.65;;;;;;;;;;5041190;28;20033;-80
2023/01/07 08:35:03;;;;;;;8.00;5.00;;;;;;;;;;5040765;28;20469;-80
2023/01/07 08:37:29;;;;;;;6.78;4.70;;;;;;;;;;5039692;28;20519;-80
2023/01/07 08:39:55;;;;;;;8.60;4.55;;;;;;;;;;5027381;28;20532;-80
2023/01/07 08:42:21;;;;;;;9.02;4.38;;;;;;;;;;5037982;28;20022;-80
2023/01/07 08:44:47;;;;;;;5.03;4.13;;;;;;;;;;5038470;28;20103;-80
2023/01/07 08:47:13;;;;;;;7.90;4.50;;;;;;;;;;5039191;28;20025;-80
2023/01/07 08:49:39;;;;;;;6.25;4.03;;;;;;;;;;5040053;28;20077;-80
2023/01/07 08:52:06;;;;;;;5.93;4.30;;;;;;;;;;5043025;28;20032;-80
2023/01/07 08:54:32;;;;;;;5.93;4.30;;;;;;;;;;5037356;28;20029;-80
2023/01/07 08:56:58;;;;;;;7.25;4.03;;;;;;;;;;5037593;28;20029;-79
2023/01/07 08:59:24;;;;;;;4.53;3.42;;;;;;;;;;5037832;28;20026;-79
2023/01/07 09:01:50;;;;;;;5.70;3.67;;;;;;;;;;5043147;28;20580;-79
2023/01/07 09:04:16;;;;;;;7.10;3.83;;;;;;;;;;5037713;28;20029;-79
2023/01/07 09:06:41;;;;;;;5.78;3.58;;;;;;;;;;5037757;28;20476;-79
2023/01/07 09:09:07;;;;;;;7.53;4.00;;;;;;;;;;5036178;28;20026;-80
2023/01/07 09:11:34;;;;;;;5.47;3.40;;;;;;;;;;5036331;28;20029;-79
2023/01/07 09:14:18;;;;;;;4.85;3.22;;;;;;;;;;5038376;28;20464;-79
2023/01/07 09:16:44;;;;;;;5.40;2.83;;;;;;;;;;5037428;28;20492;-79
2023/01/07 09:19:10;;;;;;;4.00;2.83;;;;;;;;;;5030784;28;20113;-79
2023/01/07 09:21:36;;;;;;;6.40;3.20;;;;;;;;;;5026622;28;20112;-79
2023/01/07 09:24:02;;;;;;;5.25;3.35;;;;;;;;;;5030422;28;20113;-79
2023/01/07 09:26:28;;;;;;;4.00;2.88;;;;;;;;;;5035622;28;20026;-79
2023/01/07 09:28:54;;;;;;;5.88;3.20;;;;;;;;;;5016558;28;20037;-79
2023/01/07 09:31:21;;;;;;;6.25;3.03;;;;;;;;;;5038649;28;20032;-79
2023/01/07 09:33:47;;;;;;;3.55;2.65;;;;;;;;;;5031169;28;20033;-79
2023/01/07 09:36:13;;;;;;;6.93;3.13;;;;;;;;;;5015919;28;20034;-79
2023/01/07 09:38:39;;;;;;;4.63;2.45;;;;;;;;;;5015417;28;20033;-79
2023/01/07 09:41:13;;;;;;;4.13;2.63;;;;;;;;;;5018667;28;20022;-79
2023/01/07 09:43:43;;;;;;;5.65;2.80;;;;;;;;;;5030142;28;20029;-79
2023/01/07 09:46:09;;;;;;;3.78;2.33;;;;;;;;;;5016721;28;20465;-79
2023/01/07 09:48:40;;;;;;;3.75;2.20;;;;;;;;;;5022601;28;20036;-79
2023/01/07 09:51:24;;;;;;;2.10;1.77;;;;;;;;;;5040500;28;20093;-80
2023/01/07 09:53:52;;;;;;;3.65;1.90;;;;;;;;;;5039876;28;20037;-80
2023/01/07 09:56:22;;;;;;;3.05;2.00;;;;;;;;;;5034266;28;20033;-80
2023/01/07 09:58:49;;;;;;;2.85;1.80;;;;;;;;;;5031410;28;20029;-80
2023/01/07 10:01:21;;;;;;;2.30;1.77;;;;;;;;;;5037259;28;20141;-80
2023/01/07 10:04:06;;;;;;;2.25;1.50;;;;;;;;;;5036826;28;20034;-79
2023/01/07 10:06:41;;;;;;;3.63;2.03;;;;;;;;;;5046925;28;20029;-80
2023/01/07 10:09:26;;;;;;;2.47;1.70;;;;;;;;;;5035677;28;20037;-79
2023/01/07 10:12:11;;;;;;;2.30;1.95;;;;;;;;;;5042056;28;20480;-81
2023/01/07 10:14:37;;;;;;;3.22;1.85;;;;;;;;;;5040672;28;20036;-80
2023/01/07 10:17:09;;;;;;;3.65;1.85;;;;;;;;;;5045256;28;20053;-80
2023/01/07 10:19:35;;;;;;;3.10;1.45;;;;;;;;;;5038102;28;20161;-80
2023/01/07 10:22:04;;;;;;;3.35;1.70;;;;;;;;;;5022917;28;20030;-80
2023/01/07 10:24:32;;;;;;;2.70;1.77;;;;;;;;;;5022775;28;20026;-80
2023/01/07 10:27:03;;;;;;;2.65;1.60;;;;;;;;;;5023248;28;20491;-80
2023/01/07 10:29:36;;;;;;;2.35;1.38;;;;;;;;;;5012276;28;20040;-80
2023/01/07 10:32:08;;;;;;;1.92;1.55;;;;;;;;;;5037162;28;20028;-80
2023/01/07 10:34:36;;;;;;;2.35;1.60;;;;;;;;;;5041516;28;20120;-80
2023/01/07 10:37:04;;;;;;;1.60;1.40;;;;;;;;;;5036059;28;20524;-80
2023/01/07 10:39:48;;;;;;;1.67;1.45;;;;;;;;;;5041331;28;20028;-80
2023/01/07 10:42:33;;;;;;;3.35;1.83;;;;;;;;;;5041532;28;20112;-80
2023/01/07 10:45:18;;;;;;;3.58;1.30;;;;;;;;;;5041002;28;20036;-79
2023/01/07 10:47:47;;;;;;;2.15;1.50;;;;;;;;;;5039165;28;20032;-80
2023/01/07 10:50:22;;;;;;;2.20;1.70;;;;;;;;;;5032682;28;20077;-81
2023/01/07 10:53:02;;;;;;;5.15;1.52;;;;;;;;;;5030786;28;20077;-80
2023/01/07 10:55:34;;;;;;;2.25;1.42;;;;;;;;;;5022312;28;20029;-80
2023/01/07 10:58:01;;;;;;;2.40;1.33;;;;;;;;;;5039626;28;20029;-80
2023/01/07 11:00:27;;;;;;;4.85;1.60;;;;;;;;;;5042043;28;20101;-79
2023/01/07 11:02:55;;;;;;;1.58;1.35;;;;;;;;;;5039875;28;20076;-79
2023/01/07 11:05:23;;;;;;;3.17;1.40;;;;;;;;;;5039104;28;20481;-79
2023/01/07 11:07:51;;;;;;;1.75;1.13;;;;;;;;;;5039823;28;20014;-80
2023/01/07 11:10:20;;;;;;;0.93;0.90;;;;;;;;;;5025725;28;20030;-80
2023/01/07 11:12:48;;;;;;;1.67;1.20;;;;;;;;;;5030099;28;20036;-80
2023/01/07 11:15:28;;;;;;;2.08;1.45;;;;;;;;;;5045319;28;20468;-79
2023/01/07 11:17:58;;;;;;;1.88;1.48;;;;;;;;;;5042167;28;20112;-80
2023/01/07 11:20:43;;;;;;;1.37;1.27;;;;;;;;;;5041120;28;20095;-80
2023/01/07 11:23:27;;;;;;;1.50;1.40;;;;;;;;;;5037134;28;20025;-80
2023/01/07 11:25:54;;;;;;;1.92;1.83;;;;;;;;;;5044837;28;20072;-80
2023/01/07 11:28:26;;;;;;;2.40;2.00;;;;;;;;;;5020954;28;20021;-79
2023/01/07 11:30:57;;;;;;;1.95;1.10;;;;;;;;;;5038601;28;20033;-79
2023/01/07 11:33:45;;;;;;;1.80;0.93;;;;;;;;;;5032386;28;20026;-80
2023/01/07 11:36:12;;;;;;;1.35;1.05;;;;;;;;;;5033300;28;20018;-80
2023/01/07 11:38:38;;;;;;;1.65;1.20;;;;;;;;;;5020104;28;20022;-80
2023/01/07 11:41:06;;;;;;;2.47;1.20;;;;;;;;;;5031515;28;20397;-80
2023/01/07 11:43:39;;;;;;;0.95;0.95;;;;;;;;;;5047305;28;20029;-80
2023/01/07 11:46:15;;;;;;;1.88;1.25;;;;;;;;;;5043762;28;20494;-80
2023/01/07 11:48:52;;;;;;;2.45;1.20;;;;;;;;;;5044691;28;20041;-80
2023/01/07 11:51:21;;;;;;;1.60;0.90;;;;;;;;;;5028830;28;20033;-80
2023/01/07 11:53:55;;;;;;;1.20;0.90;;;;;;;;;;5043944;28;20029;-80
2023/01/07 11:56:21;;;;;;;1.42;0.88;;;;;;;;;;5046412;28;20025;-80
2023/01/07 11:58:48;;;;;;;0.90;0.90;;;;;;;;;;5037561;28;20021;-80
2023/01/07 12:01:18;;;;;;;2.38;0.77;;;;;;;;;;5025437;28;21435;-80
2023/01/07 12:03:44;;;;;;;1.40;1.30;;;;;;;;;;5039346;28;20075;-79
2023/01/07 12:06:18;;;;;;;2.28;0.90;;;;;;;;;;5038567;28;20029;-80
2023/01/07 12:09:04;;;;;;;1.25;1.00;;;;;;;;;;5035899;28;20116;-81
2023/01/07 12:11:32;;;;;;;0.80;0.80;;;;;;;;;;4991808;28;20069;-81
2023/01/07 12:14:01;;;;;;;1.30;0.98;;;;;;;;;;5040900;28;20026;-80
2023/01/07 12:16:27;;;;;;;1.83;1.03;;;;;;;;;;5042327;28;20034;-80
2023/01/07 12:19:12;;;;;;;1.30;1.10;;;;;;;;;;5041893;28;20495;-80
2023/01/07 12:21:47;;;;;;;1.23;1.00;;;;;;;;;;5019773;28;20026;-79
2023/01/07 12:24:13;;;;;;;3.38;0.95;;;;;;;;;;5036270;28;20057;-79
2023/01/07 12:26:39;;;;;;;1.23;1.13;;;;;;;;;;5035250;28;20037;-79
2023/01/07 12:29:26;;;;;;;2.08;1.10;;;;;;;;;;5033521;28;20034;-80
2023/01/07 12:32:05;;;;;;;1.67;1.17;;;;;;;;;;5037927;28;20087;-79
2023/01/07 12:34:40;;;;;;;1.23;1.10;;;;;;;;;;5040793;28;20033;-79
2023/01/07 12:37:21;;;;;;;1.38;1.10;;;;;;;;;;5037399;28;20080;-80
2023/01/07 12:39:50;;;;;;;1.05;1.00;;;;;;;;;;5035076;28;20022;-80
2023/01/07 12:42:22;;;;;;;1.55;1.40;;;;;;;;;;5034021;28;20471;-80
2023/01/07 12:44:50;;;;;;;1.95;1.13;;;;;;;;;;5033928;28;20061;-80
2023/01/07 12:47:19;;;;;;;1.33;1.17;;;;;;;;;;5016108;28;20022;-79
2023/01/07 12:49:45;;;;;;;1.40;1.30;;;;;;;;;;5033918;28;20056;-80
2023/01/07 12:52:14;;;;;;;1.23;1.10;;;;;;;;;;5033520;28;20061;-80
2023/01/07 12:54:55;;;;;;;1.77;1.30;;;;;;;;;;5033536;28;20029;-79
2023/01/07 12:57:24;;;;;;;1.45;1.10;;;;;;;;;;5033559;28;20025;-79
2023/01/07 12:59:56;;;;;;;1.88;1.02;;;;;;;;;;5034318;28;20021;-79
2023/01/07 13:02:50;;;;;;;2.33;1.38;;;;;;;;;;5020027;28;20050;-80
2023/01/07 13:05:16;;;;;;;2.33;1.40;;;;;;;;;;5006412;28;20365;-80
2023/01/07 13:07:49;;;;;;;1.30;1.20;;;;;;;;;;5014975;28;20405;-80
2023/01/07 13:10:18;;;;;;;1.23;1.10;;;;;;;;;;5013654;28;20022;-80
2023/01/07 13:12:46;;;;;;;2.05;1.40;;;;;;;;;;5013788;28;20112;-80
2023/01/07 13:15:19;;;;;;;1.50;1.40;;;;;;;;;;5013755;28;20026;-80
2023/01/07 13:17:46;;;;;;;1.77;1.48;;;;;;;;;;5014001;28;20058;-79
2023/01/07 13:20:13;;;;;;;1.88;1.38;;;;;;;;;;4994474;28;20080;-80
2023/01/07 13:22:39;;;;;;;1.67;1.35;;;;;;;;;;5013606;28;20098;-80
2023/01/07 13:25:24;;;;;;;1.70;1.23;;;;;;;;;;5013884;28;20504;-80
2023/01/07 13:27:50;;;;;;;1.30;1.20;;;;;;;;;;4993266;28;20385;-80
2023/01/07 13:30:17;;;;;;;1.75;1.40;;;;;;;;;;4994484;28;20026;-80
2023/01/07 13:32:52;;;;;;;4.60;2.17;;;;;;;;;;4997943;28;20030;-80
2023/01/07 13:35:37;;;;;;;2.28;1.40;;;;;;;;;;5024064;28;20029;-80
2023/01/07 13:38:09;;;;;;;2.45;1.58;;;;;;;;;;5017473;28;20030;-80
2023/01/07 13:40:35;;;;;;;1.60;1.50;;;;;;;;;;5017436;28;20476;-80
2023/01/07 13:43:19;;;;;;;1.55;1.30;;;;;;;;;;5017188;28;20033;-80
2023/01/07 13:45:51;;;;;;;3.53;1.73;;;;;;;;;;5016951;28;20045;-79
2023/01/07 13:48:22;;;;;;;1.70;1.45;;;;;;;;;;5017079;28;20373;-79
2023/01/07 13:50:54;;;;;;;1.65;1.45;;;;;;;;;;5017437;28;20030;-79
2023/01/07 13:53:20;;;;;;;1.98;1.50;;;;;;;;;;5017285;28;20330;-79
2023/01/07 13:55:47;;;;;;;3.30;1.73;;;;;;;;;;5017109;28;20484;-79
2023/01/07 13:58:28;;;;;;;2.00;1.55;;;;;;;;;;5016901;28;20022;-79
2023/01/07 14:01:07;;;;;;;1.98;1.60;;;;;;;;;;5016371;28;20385;-79
2023/01/07 14:03:36;;;;;;;1.90;1.50;;;;;;;;;;5036515;28;20479;-80
2023/01/07 14:06:18;;;;;;;3.88;1.70;;;;;;;;;;5036645;28;20026;-79
2023/01/07 14:08:54;;;;;;;1.65;1.55;;;;;;;;;;5046018;28;20033;-80
2023/01/07 14:11:29;;;;;;;2.85;1.70;;;;;;;;;;5017013;28;20057;-80
2023/01/07 14:14:14;;;;;;;2.60;1.95;;;;;;;;;;5034380;28;20468;-80
2023/01/07 14:16:47;;;;;;;2.42;1.38;;;;;;;;;;5036826;28;20074;-80
2023/01/07 14:19:13;;;;;;;2.00;1.67;;;;;;;;;;5036427;28;20032;-80
2023/01/07 14:21:39;;;;;;;2.20;1.70;;;;;;;;;;5026854;28;20451;-80
2023/01/07 14:24:23;;;;;;;2.13;1.83;;;;;;;;;;5020004;28;20062;-81
2023/01/07 14:26:49;;;;;;;2.20;1.85;;;;;;;;;;5028140;28;20037;-81
2023/01/07 14:29:30;;;;;;;2.17;1.88;;;;;;;;;;5016366;28;20034;-82
2023/01/07 14:32:31;;;;;;;3.17;1.95;;;;;;;;;;5016450;28;20588;-81
2023/01/07 14:35:03;;;;;;;2.35;1.70;;;;;;;;;;4917910;29;20032;-82
2023/01/07 14:37:34;;;;;;;4.05;1.92;;;;;;;;;;5020226;28;20041;-81
2023/01/07 14:39:59;;;;;;;;;;;;;;;;;;5036124;28;20029;-81
2023/01/07 14:42:27;;;;;;;3.35;1.83;;;;;;;;;;5035162;28;19923;-81
2023/01/07 14:44:53;;;;;;;3.25;1.60;;;;;;;;;;5035912;28;20041;-81
2023/01/07 14:47:38;;;;;;;1.75;1.58;;;;;;;;;;5035810;28;20025;-80
2023/01/07 14:50:07;;;;;;;2.20;1.35;;;;;;;;;;5035720;28;20052;-80